createdAt,value
2023-03-21T03:15:28.470Z,101122.05
2023-03-21T03:16:30.326Z,101116.09
2023-03-21T03:17:32.124Z,101119.53
2023-03-21T03:18:33.927Z,101113.50
2023-03-21T03:19:44.647Z,101115.19
2023-03-21T03:20:39.786Z,101110.81
2023-03-21T03:21:41.863Z,101103.88
2023-03-21T03:22:43.684Z,101103.88
2023-03-21T03:23:45.483Z,101108.17
2023-03-21T03:24:47.329Z,101106.41
2023-03-21T03:25:49.046Z,101116.72
2023-03-21T03:26:50.851Z,101110.63
2023-03-21T03:27:52.585Z,101112.31
2023-03-21T03:28:54.411Z,101120.90
2023-03-21T03:29:56.265Z,101118.26
2023-03-21T03:31:08.612Z,101116.48
2023-03-21T03:32:01.765Z,101120.78
2023-03-21T03:33:03.758Z,101120.72
2023-03-21T03:34:05.557Z,101122.40
2023-03-21T03:35:07.517Z,101119.01
2023-03-21T03:36:12.607Z,101119.82
2023-03-21T03:37:13.064Z,101117.23
2023-03-21T03:38:14.883Z,101112.14
2023-03-21T03:39:16.697Z,101117.23
2023-03-21T03:40:18.540Z,101112.08
2023-03-21T03:41:20.354Z,101118.89
2023-03-21T03:42:28.572Z,101110.25
2023-03-21T03:43:25.786Z,101112.77
2023-03-21T03:44:27.589Z,101119.70
2023-03-21T03:45:29.444Z,101120.57
2023-03-21T03:46:31.332Z,101111.09
2023-03-21T03:47:37.812Z,101116.31
2023-03-21T03:48:36.807Z,101112.98
2023-03-21T03:49:38.576Z,101120.78
2023-03-21T03:50:40.434Z,101114.72
2023-03-21T03:51:42.252Z,101112.98
2023-03-21T03:52:55.251Z,101118.14
2023-03-21T03:53:47.710Z,101121.59
2023-03-21T03:54:49.516Z,101116.38
2023-03-21T03:55:51.351Z,101116.38
2023-03-21T03:56:53.172Z,101120.63
2023-03-21T03:57:54.941Z,101118.95
2023-03-21T03:58:56.745Z,101121.53
2023-03-21T03:59:58.549Z,101120.72
2023-03-21T04:01:00.383Z,101118.20
2023-03-21T04:02:02.204Z,101118.26
2023-03-21T04:03:04.121Z,101117.41
2023-03-21T04:04:12.968Z,101108.00
2023-03-21T04:05:09.605Z,101112.31
2023-03-21T04:06:11.453Z,101104.63
2023-03-21T04:07:13.256Z,101103.82
2023-03-21T04:08:15.057Z,101103.88
2023-03-21T04:09:21.032Z,101099.59
2023-03-21T04:10:20.579Z,101107.33
2023-03-21T04:11:22.413Z,101103.12
2023-03-21T04:12:24.199Z,101104.86
2023-03-21T04:13:26.007Z,101105.77
2023-03-21T04:14:35.552Z,101107.50
2023-03-21T04:15:31.434Z,101108.55
2023-03-21T04:16:35.667Z,101106.08
2023-03-21T04:17:36.886Z,101114.75
2023-03-21T04:18:38.681Z,101113.12
2023-03-21T04:19:40.479Z,101109.77
2023-03-21T04:20:42.285Z,101109.81
2023-03-21T04:21:44.128Z,101108.20
2023-03-21T04:22:45.929Z,101111.70
2023-03-21T04:23:47.728Z,101115.20
2023-03-21T04:24:49.549Z,101107.52
2023-03-21T04:25:56.656Z,101111.11
2023-03-21T04:26:55.043Z,101109.45
2023-03-21T04:27:56.856Z,101112.16
2023-03-21T04:28:58.666Z,101109.68
2023-03-21T04:30:00.463Z,101110.69
2023-03-21T04:31:16.006Z,101106.45
2023-03-21T04:32:05.951Z,101103.98
2023-03-21T04:33:07.747Z,101109.25
2023-03-21T04:34:09.533Z,101110.17
2023-03-21T04:35:11.358Z,101103.44
2023-03-21T04:36:13.484Z,101107.00
2023-03-21T04:37:15.292Z,101108.01
2023-03-21T04:38:17.096Z,101104.63
2023-03-21T04:39:18.898Z,101108.17
2023-03-21T04:40:20.699Z,101103.05
2023-03-21T04:41:22.512Z,101106.51
2023-03-21T04:42:24.496Z,101105.75
2023-03-21T04:43:26.313Z,101106.67
2023-03-21T04:44:28.113Z,101104.14
2023-03-21T04:45:29.942Z,101105.95
2023-03-21T04:46:31.733Z,101107.78
2023-03-21T04:47:33.702Z,101113.92
2023-03-21T04:48:35.508Z,101113.21
2023-03-21T04:49:37.319Z,101108.15
2023-03-21T04:50:39.410Z,101109.98
2023-03-21T04:51:41.387Z,101108.36
2023-03-21T04:52:43.259Z,101106.69
2023-03-21T04:53:45.078Z,101104.20
2023-03-21T04:54:46.878Z,101106.03
2023-03-21T04:55:52.393Z,101100.96
2023-03-21T04:56:52.316Z,101110.48
2023-03-21T04:57:54.177Z,101108.87
2023-03-21T04:58:56.066Z,101102.94
2023-03-21T04:59:57.861Z,101103.91
2023-03-21T05:00:59.673Z,101106.59
2023-03-21T05:02:01.458Z,101103.23
2023-03-21T05:03:03.313Z,101098.16
2023-03-21T05:04:05.180Z,101099.17
2023-03-21T05:05:06.950Z,101097.59
2023-03-21T05:06:09.101Z,101095.11
2023-03-21T05:07:10.944Z,101102.11
2023-03-21T05:08:12.762Z,101102.20
2023-03-21T05:09:14.585Z,101101.44
2023-03-21T05:10:16.695Z,101104.13
2023-03-21T05:11:18.501Z,101100.77
2023-03-21T05:12:20.299Z,101100.86
2023-03-21T05:13:22.152Z,101093.14
2023-03-21T05:14:24.014Z,101098.41
2023-03-21T05:15:25.776Z,101102.81
2023-03-21T05:16:27.607Z,101097.73
2023-03-21T05:17:29.389Z,101106.45
2023-03-21T05:18:31.259Z,101100.55
2023-03-21T05:19:33.098Z,101099.83
2023-03-21T05:20:34.918Z,101107.73
2023-03-21T05:21:36.723Z,101104.34
2023-03-21T05:22:38.518Z,101107.87
2023-03-21T05:23:40.390Z,101108.83
2023-03-21T05:24:42.302Z,101113.27
2023-03-21T05:25:44.197Z,101109.91
2023-03-21T05:26:46.106Z,101114.22
2023-03-21T05:27:47.947Z,101108.22
2023-03-21T05:28:49.770Z,101114.31
2023-03-21T05:29:51.613Z,101113.45
2023-03-21T05:30:53.452Z,101117.84
2023-03-21T05:31:55.332Z,101119.62
2023-03-21T05:32:57.124Z,101116.27
2023-03-21T05:33:58.954Z,101123.30
2023-03-21T05:35:00.752Z,101119.98
2023-03-21T05:36:02.625Z,101121.80
2023-03-21T05:37:04.375Z,101121.89
2023-03-21T05:38:06.171Z,101126.29
2023-03-21T05:39:08.009Z,101122.92
2023-03-21T05:40:09.896Z,101132.47
2023-03-21T05:41:11.710Z,101127.38
2023-03-21T05:42:13.522Z,101132.72
2023-03-21T05:43:15.325Z,101129.31
2023-03-21T05:44:17.194Z,101126.85
2023-03-21T05:45:19.005Z,101124.34
2023-03-21T05:46:20.855Z,101134.75
2023-03-21T05:47:22.665Z,101125.33
2023-03-21T05:48:24.475Z,101128.83
2023-03-21T05:49:26.294Z,101128.87
2023-03-21T05:50:28.122Z,101131.55
2023-03-21T05:51:29.920Z,101123.81
2023-03-21T05:52:31.716Z,101133.41
2023-03-21T05:53:33.529Z,101127.39
2023-03-21T05:54:35.397Z,101126.53
2023-03-21T05:55:37.498Z,101126.62
2023-03-21T05:56:39.417Z,101131.02
2023-03-21T05:57:41.231Z,101136.28
2023-03-21T05:58:43.045Z,101125.09
2023-03-21T05:59:44.892Z,101129.45
2023-03-21T06:00:46.694Z,101131.22
2023-03-21T06:01:48.502Z,101131.22
2023-03-21T06:02:50.391Z,101131.27
2023-03-21T06:03:52.355Z,101127.84
2023-03-21T06:04:54.216Z,101132.13
2023-03-21T06:05:56.004Z,101131.30
2023-03-21T06:06:57.809Z,101126.16
2023-03-21T06:07:59.628Z,101129.70
2023-03-21T06:09:01.425Z,101125.37
2023-03-21T06:10:03.314Z,101128.02
2023-03-21T06:11:05.128Z,101132.33
2023-03-21T06:12:06.996Z,101126.28
2023-03-21T06:13:08.793Z,101128.05
2023-03-21T06:14:10.598Z,101127.27
2023-03-21T06:15:12.532Z,101130.77
2023-03-21T06:16:14.746Z,101123.89
2023-03-21T06:17:16.623Z,101125.70
2023-03-21T06:18:18.397Z,101123.11
2023-03-21T06:19:20.210Z,101126.60
2023-03-21T06:20:22.059Z,101129.23
2023-03-21T06:21:25.772Z,101132.73
2023-03-21T06:22:27.537Z,101132.80
2023-03-21T06:23:29.352Z,101128.53
2023-03-21T06:24:31.184Z,101125.97
2023-03-21T06:25:33.034Z,101136.38
2023-03-21T06:26:34.847Z,101132.96
2023-03-21T06:27:36.652Z,101131.23
2023-03-21T06:28:38.450Z,101124.39
2023-03-21T06:29:40.299Z,101124.43
2023-03-21T06:30:42.188Z,101121.91
2023-03-21T06:31:44.053Z,101127.14
2023-03-21T06:32:45.817Z,101121.17
2023-03-21T06:33:47.629Z,101135.08
2023-03-21T06:34:49.475Z,101129.09
2023-03-21T06:35:51.355Z,101122.25
2023-03-21T06:36:53.202Z,101122.29
2023-03-21T06:37:55.012Z,101127.59
2023-03-21T06:38:56.833Z,101118.16
2023-03-21T06:39:58.633Z,101129.50
2023-03-21T06:41:00.520Z,101121.80
2023-03-21T06:42:02.365Z,101127.12
2023-03-21T06:43:04.183Z,101132.42
2023-03-21T06:44:06.049Z,101122.98
2023-03-21T06:45:07.858Z,101132.60
2023-03-21T06:46:09.889Z,101127.52
2023-03-21T06:47:11.686Z,101125.06
2023-03-21T06:48:13.568Z,101120.84
2023-03-21T06:49:15.319Z,101115.71
2023-03-21T06:50:17.116Z,101113.22
2023-03-21T06:51:18.981Z,101120.20
2023-03-21T06:52:20.810Z,101112.48
2023-03-21T06:53:22.609Z,101120.41
2023-03-21T06:54:24.410Z,101110.92
2023-03-21T06:55:26.241Z,101115.34
2023-03-21T06:56:28.136Z,101117.14
2023-03-21T06:57:29.947Z,101112.91
2023-03-21T06:58:31.771Z,101112.07
2023-03-21T06:59:33.574Z,101113.03
2023-03-21T07:00:35.397Z,101116.59
2023-03-21T07:01:37.369Z,101114.06
2023-03-21T07:02:39.221Z,101108.95
2023-03-21T07:03:40.981Z,101106.41
2023-03-21T07:04:42.908Z,101108.23
2023-03-21T07:05:44.790Z,101107.46
2023-03-21T07:06:46.876Z,101098.89
2023-03-21T07:07:48.696Z,101107.64
2023-03-21T07:08:50.515Z,101104.27
2023-03-21T07:09:52.363Z,101108.66
2023-03-21T07:10:54.176Z,101105.27
2023-03-21T07:11:56.063Z,101107.03
2023-03-21T07:12:57.898Z,101103.62
2023-03-21T07:13:59.708Z,101104.52
2023-03-21T07:15:01.576Z,101102.84
2023-03-21T07:16:03.440Z,101103.83
2023-03-21T07:17:05.318Z,101107.34
2023-03-21T07:18:07.215Z,101111.81
2023-03-21T07:19:09.034Z,101111.81
2023-03-21T07:20:10.968Z,101104.87
2023-03-21T07:21:12.790Z,101106.64
2023-03-21T07:22:14.649Z,101115.37
2023-03-21T07:23:16.469Z,101110.22
2023-03-21T07:24:18.283Z,101111.17
2023-03-21T07:25:20.248Z,101105.13
2023-03-21T07:26:22.177Z,101108.67
2023-03-21T07:27:24.033Z,101108.70
2023-03-21T07:28:25.875Z,101106.16
2023-03-21T07:29:27.680Z,101103.58
2023-03-21T07:30:29.557Z,101110.56
2023-03-21T07:31:31.390Z,101109.72
2023-03-21T07:32:33.350Z,101108.91
2023-03-21T07:33:35.172Z,101104.59
2023-03-21T07:34:37.110Z,101113.32
2023-03-21T07:35:39.214Z,101106.41
2023-03-21T07:36:41.274Z,101105.56
2023-03-21T07:37:44.284Z,101109.05
2023-03-21T07:38:46.102Z,101109.94
2023-03-21T07:39:48.000Z,101108.23
2023-03-21T07:40:49.942Z,101105.66
2023-03-21T07:41:51.753Z,101105.69
2023-03-21T07:42:53.634Z,101113.49
2023-03-21T07:43:55.421Z,101109.16
2023-03-21T07:44:57.233Z,101110.05
2023-03-21T07:46:00.886Z,101109.17
2023-03-21T07:47:02.809Z,101105.73
2023-03-21T07:48:04.687Z,101110.94
2023-03-21T07:49:06.478Z,101110.94
2023-03-21T07:50:08.342Z,101107.52
2023-03-21T07:51:10.137Z,101110.09
2023-03-21T07:52:11.932Z,101104.91
2023-03-21T07:53:13.797Z,101105.78
2023-03-21T07:54:15.601Z,101104.91
2023-03-21T07:55:17.479Z,101105.80
2023-03-21T07:56:19.318Z,101112.77
2023-03-21T07:57:21.271Z,101107.56
2023-03-21T07:58:23.065Z,101110.19
2023-03-21T07:59:24.868Z,101114.52
2023-03-21T08:00:26.666Z,101109.31
2023-03-21T08:01:28.469Z,101122.36
2023-03-21T08:02:30.320Z,101115.45
2023-03-21T08:03:32.151Z,101112.84
2023-03-21T08:04:36.840Z,101109.36
2023-03-21T08:05:39.085Z,101111.98
2023-03-21T08:06:41.117Z,101112.91
2023-03-21T08:07:42.910Z,101109.45
2023-03-21T08:08:44.777Z,101117.33
2023-03-21T08:09:46.598Z,101109.52
2023-03-21T08:10:48.555Z,101109.52
2023-03-21T08:11:50.355Z,101109.52
2023-03-21T08:12:52.217Z,101106.91
2023-03-21T08:13:54.100Z,101113.87
2023-03-21T08:14:55.902Z,101118.23
2023-03-21T08:15:57.730Z,101113.05
2023-03-21T08:16:59.627Z,101110.47
2023-03-21T08:18:01.521Z,101108.70
2023-03-21T08:19:03.413Z,101106.12
2023-03-21T08:20:05.272Z,101109.65
2023-03-21T08:21:09.351Z,101111.37
2023-03-21T08:22:10.780Z,101108.80
2023-03-21T08:23:12.557Z,101099.30
2023-03-21T08:24:14.452Z,101107.97
2023-03-21T08:25:16.361Z,101104.51
2023-03-21T08:26:18.286Z,101103.66
2023-03-21T08:27:20.108Z,101112.38
2023-03-21T08:28:21.956Z,101102.89
2023-03-21T08:29:23.934Z,101102.89
2023-03-21T08:30:25.756Z,101109.89
2023-03-21T08:31:27.611Z,101102.11
2023-03-21T08:32:29.437Z,101102.16
2023-03-21T08:33:31.261Z,101100.44
2023-03-21T08:34:33.101Z,101103.06
2023-03-21T08:35:34.844Z,101107.47
2023-03-21T08:36:36.612Z,101104.02
2023-03-21T08:37:38.421Z,101105.81
2023-03-21T08:38:40.239Z,101098.89
2023-03-21T08:39:42.130Z,101098.91
2023-03-21T08:40:43.896Z,101099.77
2023-03-21T08:41:45.692Z,101095.47
2023-03-21T08:42:47.614Z,101091.14
2023-03-21T08:43:49.467Z,101096.39
2023-03-21T08:44:51.363Z,101087.71
2023-03-21T08:45:53.211Z,101092.06
2023-03-21T08:46:54.984Z,101084.25
2023-03-21T08:47:57.027Z,101086.01
2023-03-21T08:48:59.035Z,101083.41
2023-03-21T08:50:00.895Z,101086.89
2023-03-21T08:51:02.714Z,101084.34
2023-03-21T08:52:04.508Z,101085.23
2023-03-21T08:53:06.319Z,101090.45
2023-03-21T08:54:08.138Z,101085.23
2023-03-21T08:55:10.055Z,101088.72
2023-03-21T08:56:12.008Z,101080.04
2023-03-21T08:57:13.877Z,101084.35
2023-03-21T08:58:15.685Z,101080.88
2023-03-21T08:59:17.819Z,101086.95
2023-03-21T09:00:19.664Z,101082.66
2023-03-21T09:01:21.513Z,101094.81
2023-03-21T09:02:23.285Z,101076.52
2023-03-21T09:03:25.329Z,101086.99
2023-03-21T09:04:27.216Z,101087.89
2023-03-21T09:05:29.179Z,101088.73
2023-03-21T09:06:31.086Z,101089.60
2023-03-21T09:07:32.910Z,101086.99
2023-03-21T09:08:34.749Z,101092.26
2023-03-21T09:09:36.640Z,101084.39
2023-03-21T09:10:38.557Z,101091.36
2023-03-21T09:11:40.349Z,101087.89
2023-03-21T09:12:42.173Z,101087.91
2023-03-21T09:13:43.980Z,101090.52
2023-03-21T09:14:45.915Z,101088.77
2023-03-21T09:15:47.862Z,101076.63
2023-03-21T09:16:49.672Z,101081.83
2023-03-21T09:17:51.499Z,101083.53
2023-03-21T09:18:53.328Z,101089.60
2023-03-21T09:19:55.189Z,101084.37
2023-03-21T09:20:57.059Z,101082.66
2023-03-21T09:21:58.909Z,101087.87
2023-03-21T09:23:00.730Z,101081.78
2023-03-21T09:24:02.546Z,101089.66
2023-03-21T09:25:04.348Z,101089.67
2023-03-21T09:26:06.713Z,101087.09
2023-03-21T09:27:08.500Z,101080.16
2023-03-21T09:28:10.336Z,101088.00
2023-03-21T09:29:12.194Z,101076.74
2023-03-21T09:30:14.211Z,101086.29
2023-03-21T09:31:16.325Z,101088.91
2023-03-21T09:32:18.127Z,101079.38
2023-03-21T09:33:19.967Z,101084.61
2023-03-21T09:34:21.792Z,101082.89
2023-03-21T09:35:23.593Z,101077.69
2023-03-21T09:36:25.470Z,101081.16
2023-03-21T09:37:27.141Z,101084.68
2023-03-21T09:38:28.955Z,101077.73
2023-03-21T09:39:30.813Z,101075.16
2023-03-21T09:40:32.626Z,101076.08
2023-03-21T09:41:34.402Z,101069.12
2023-03-21T09:42:36.214Z,101070.92
2023-03-21T09:43:38.042Z,101070.04
2023-03-21T09:44:39.849Z,101069.20
2023-03-21T09:45:41.666Z,101067.47
2023-03-21T09:46:43.689Z,101066.63
2023-03-21T09:47:45.639Z,101070.11
2023-03-21T09:48:56.832Z,101073.63
2023-03-21T09:49:51.797Z,101072.80
2023-03-21T09:50:53.673Z,101071.93
2023-03-21T09:51:55.513Z,101071.93
2023-03-21T09:52:57.347Z,101073.72
2023-03-21T09:53:59.140Z,101072.87
2023-03-21T09:55:00.970Z,101062.44
2023-03-21T09:56:02.807Z,101069.38
2023-03-21T09:57:04.647Z,101072.89
2023-03-21T09:58:06.472Z,101073.76
2023-03-21T09:59:08.298Z,101066.80
2023-03-21T10:00:10.424Z,101066.81
2023-03-21T10:01:12.271Z,101078.16
2023-03-21T10:02:14.181Z,101072.94
2023-03-21T10:03:15.995Z,101068.58
2023-03-21T10:04:17.984Z,101069.45
2023-03-21T10:05:19.772Z,101066.00
2023-03-21T10:06:21.615Z,101071.22
2023-03-21T10:07:23.464Z,101068.63
2023-03-21T10:08:25.271Z,101063.43
2023-03-21T10:09:27.081Z,101060.81
2023-03-21T10:10:28.915Z,101057.34
2023-03-21T10:11:30.713Z,101057.34
2023-03-21T10:12:32.570Z,101057.34
2023-03-21T10:13:34.402Z,101056.50
2023-03-21T10:14:36.359Z,101055.60
2023-03-21T10:15:38.583Z,101059.97
2023-03-21T10:16:40.616Z,101054.75
2023-03-21T10:17:42.421Z,101052.16
2023-03-21T10:18:44.266Z,101051.28
2023-03-21T10:19:46.089Z,101053.02
2023-03-21T10:20:47.906Z,101056.52
2023-03-21T10:22:01.292Z,101054.77
2023-03-21T10:22:53.395Z,101056.52
2023-03-21T10:23:55.216Z,101057.38
2023-03-21T10:24:57.026Z,101054.78
2023-03-21T10:25:58.796Z,101054.80
2023-03-21T10:27:00.688Z,101049.58
2023-03-21T10:28:02.560Z,101049.58
2023-03-21T10:29:04.417Z,101048.72
2023-03-21T10:30:06.384Z,101051.33
2023-03-21T10:31:08.181Z,101040.89
2023-03-21T10:32:10.037Z,101053.04
2023-03-21T10:33:12.038Z,101045.20
2023-03-21T10:34:13.856Z,101046.95
2023-03-21T10:35:15.683Z,101046.09
2023-03-21T10:36:17.568Z,101048.69
2023-03-21T10:37:19.436Z,101039.12
2023-03-21T10:38:21.297Z,101043.47
2023-03-21T10:39:22.982Z,101046.07
2023-03-21T10:40:24.781Z,101051.30
2023-03-21T10:41:26.586Z,101042.56
2023-03-21T10:42:28.405Z,101045.17
2023-03-21T10:43:30.214Z,101046.92
2023-03-21T10:44:32.010Z,101040.84
2023-03-21T10:45:33.874Z,101043.45
2023-03-21T10:46:36.296Z,101050.37
2023-03-21T10:47:38.686Z,101052.99
2023-03-21T10:48:40.729Z,101046.91
2023-03-21T10:50:06.475Z,101041.69
2023-03-21T10:50:46.243Z,101039.08
2023-03-21T10:51:47.989Z,101034.72
2023-03-21T10:52:49.784Z,101045.16
2023-03-21T10:53:51.587Z,101035.59
2023-03-21T10:54:53.384Z,101037.31
2023-03-21T10:55:55.173Z,101042.53
2023-03-21T10:56:56.974Z,101037.31
2023-03-21T10:57:58.756Z,101039.92
2023-03-21T10:59:00.561Z,101040.81
2023-03-21T11:00:02.376Z,101040.80
2023-03-21T11:01:04.150Z,101038.20
2023-03-21T11:02:06.223Z,101041.68
2023-03-21T11:03:08.041Z,101040.81
2023-03-21T11:04:09.884Z,101039.93
2023-03-21T11:05:11.680Z,101043.42
2023-03-21T11:06:14.384Z,101039.06
2023-03-21T11:07:16.168Z,101037.31
2023-03-21T11:08:17.949Z,101038.20
2023-03-21T11:09:19.765Z,101038.20
2023-03-21T11:10:28.569Z,101030.37
2023-03-21T11:11:25.271Z,101039.05
2023-03-21T11:12:27.049Z,101045.14
2023-03-21T11:13:28.840Z,101032.09
2023-03-21T11:14:30.649Z,101030.37
2023-03-21T11:15:32.452Z,101032.09
2023-03-21T11:16:34.278Z,101031.22
2023-03-21T11:17:36.018Z,101032.08
2023-03-21T11:18:37.811Z,101036.44
2023-03-21T11:19:40.373Z,101032.93
2023-03-21T11:20:42.265Z,101031.22
2023-03-21T11:21:44.062Z,101033.83
2023-03-21T11:22:45.846Z,101036.44
2023-03-21T11:23:47.625Z,101033.83
2023-03-21T11:24:49.446Z,101023.37
2023-03-21T11:25:51.227Z,101026.00
2023-03-21T11:26:53.023Z,101037.30
2023-03-21T11:27:54.850Z,101039.05
2023-03-21T11:28:56.595Z,101026.86
2023-03-21T11:29:58.405Z,101027.75
2023-03-21T11:31:00.232Z,101033.84
2023-03-21T11:32:02.007Z,101031.23
2023-03-21T11:33:03.832Z,101032.98
2023-03-21T11:34:05.586Z,101026.88
2023-03-21T11:35:07.457Z,101028.64
2023-03-21T11:36:10.457Z,101027.78
2023-03-21T11:37:12.279Z,101030.39
2023-03-21T11:38:14.064Z,101033.02
2023-03-21T11:39:15.971Z,101025.19
2023-03-21T11:40:17.809Z,101022.58
2023-03-21T11:41:19.596Z,101020.81
2023-03-21T11:42:21.391Z,101025.17
2023-03-21T11:43:23.176Z,101024.28
2023-03-21T11:44:25.297Z,101026.03
2023-03-21T11:45:27.115Z,101020.81
2023-03-21T11:46:29.068Z,101023.44
2023-03-21T11:47:31.112Z,101026.05
2023-03-21T11:48:32.905Z,101019.08
2023-03-21T11:49:34.693Z,101024.30
2023-03-21T11:50:36.616Z,101026.07
2023-03-21T11:51:38.414Z,101015.63
2023-03-21T11:52:40.202Z,101018.27
2023-03-21T11:53:41.976Z,101016.52
2023-03-21T11:54:43.773Z,101011.30
2023-03-21T11:55:45.581Z,101013.06
2023-03-21T11:56:47.431Z,101014.82
2023-03-21T11:57:49.225Z,101007.00
2023-03-21T11:58:51.063Z,101010.48
2023-03-21T11:59:52.802Z,101001.78
2023-03-21T12:00:54.625Z,101008.73
2023-03-21T12:01:56.407Z,101002.66
2023-03-21T12:02:58.288Z,101008.75
2023-03-21T12:04:00.079Z,101007.89
2023-03-21T12:05:01.897Z,101007.05
2023-03-21T12:06:03.916Z,101007.05
2023-03-21T12:07:05.691Z,101004.44
2023-03-21T12:08:07.469Z,101000.97
2023-03-21T12:09:09.266Z,101009.66
2023-03-21T12:10:11.261Z,101007.06
2023-03-21T12:11:13.067Z,101000.09
2023-03-21T12:12:14.850Z,101001.84
2023-03-21T12:13:16.650Z,101000.98
2023-03-21T12:14:18.427Z,100996.63
2023-03-21T12:15:20.224Z,100998.38
2023-03-21T12:16:22.054Z,101002.70
2023-03-21T12:17:23.820Z,100997.50
2023-03-21T12:18:25.616Z,101000.11
2023-03-21T12:19:27.415Z,101001.00
2023-03-21T12:20:29.214Z,100994.03
2023-03-21T12:21:31.021Z,100994.89
2023-03-21T12:22:32.824Z,100987.96
2023-03-21T12:23:34.711Z,100992.30
2023-03-21T12:24:36.501Z,100992.30
2023-03-21T12:25:38.691Z,100989.69
2023-03-21T12:26:40.970Z,100986.22
2023-03-21T12:27:42.755Z,100987.08
2023-03-21T12:28:44.530Z,100987.98
2023-03-21T12:29:46.339Z,100985.37
2023-03-21T12:30:48.124Z,100986.22
2023-03-21T12:31:49.900Z,100980.14
2023-03-21T12:32:51.648Z,100980.16
2023-03-21T12:33:53.421Z,100985.38
2023-03-21T12:34:55.216Z,100990.61
2023-03-21T12:35:57.015Z,100981.02
2023-03-21T12:36:58.829Z,100981.89
2023-03-21T12:38:00.672Z,100981.05
2023-03-21T12:39:02.438Z,100975.82
2023-03-21T12:40:04.223Z,100986.27
2023-03-21T12:41:06.069Z,100980.19
2023-03-21T12:42:07.898Z,100975.83
2023-03-21T12:43:09.677Z,100977.62
2023-03-21T12:44:11.470Z,100975.02
2023-03-21T12:45:15.746Z,100978.48
2023-03-21T12:46:16.881Z,100969.80
2023-03-21T12:47:18.890Z,100974.12
2023-03-21T12:48:20.850Z,100977.62
2023-03-21T12:49:22.655Z,100977.62
2023-03-21T12:50:24.480Z,100967.18
2023-03-21T12:51:26.287Z,100972.41
2023-03-21T12:52:28.144Z,100971.56
2023-03-21T12:53:29.951Z,100967.20
2023-03-21T12:54:31.761Z,100968.06
2023-03-21T12:55:33.583Z,100974.19
2023-03-21T12:56:35.383Z,100965.47
2023-03-21T12:57:40.213Z,100966.36
2023-03-21T12:58:42.985Z,100962.00
2023-03-21T12:59:44.444Z,100961.14
2023-03-21T13:00:46.228Z,100962.00
2023-03-21T13:01:48.081Z,100955.92
2023-03-21T13:02:49.950Z,100962.00
2023-03-21T13:03:51.802Z,100962.00
2023-03-21T13:04:53.635Z,100955.03
2023-03-21T13:05:55.674Z,100965.48
2023-03-21T13:06:57.827Z,100966.38
2023-03-21T13:07:59.661Z,100960.27
2023-03-21T13:09:01.492Z,100959.41
2023-03-21T13:10:04.303Z,100968.11
2023-03-21T13:11:06.126Z,100962.89
2023-03-21T13:12:08.019Z,100959.42
2023-03-21T13:13:09.849Z,100956.81
2023-03-21T13:14:11.673Z,100960.29
2023-03-21T13:15:21.836Z,100958.57
2023-03-21T13:16:17.128Z,100955.96
2023-03-21T13:17:18.956Z,100962.05
2023-03-21T13:18:20.793Z,100959.44
2023-03-21T13:19:22.589Z,100954.22
2023-03-21T13:20:24.466Z,100963.81
2023-03-21T13:21:26.277Z,100957.69
2023-03-21T13:22:28.088Z,100957.70
2023-03-21T13:23:29.943Z,100956.83
2023-03-21T13:24:31.744Z,100956.84
2023-03-21T13:25:33.533Z,100958.59
2023-03-21T13:26:35.581Z,100953.38
2023-03-21T13:27:37.419Z,100955.98
2023-03-21T13:28:39.237Z,100955.98
2023-03-21T13:29:41.062Z,100949.87
2023-03-21T13:30:42.869Z,100950.75
2023-03-21T13:31:51.740Z,100952.47
2023-03-21T13:32:48.283Z,100947.25
2023-03-21T13:33:50.088Z,100949.86
2023-03-21T13:34:51.879Z,100946.39
2023-03-21T13:35:53.702Z,100951.61
2023-03-21T13:36:55.513Z,100947.25
2023-03-21T13:37:57.322Z,100947.25
2023-03-21T13:38:59.678Z,100947.25
2023-03-21T13:40:02.297Z,100945.53
2023-03-21T13:41:04.100Z,100947.25
2023-03-21T13:42:05.908Z,100942.02
2023-03-21T13:43:10.163Z,100945.52
2023-03-21T13:44:11.357Z,100942.91
2023-03-21T13:45:13.155Z,100935.08
2023-03-21T13:46:15.183Z,100940.31
2023-03-21T13:47:16.948Z,100947.25
2023-03-21T13:48:18.795Z,100940.31
2023-03-21T13:49:20.599Z,100935.08
2023-03-21T13:50:22.408Z,100938.56
2023-03-21T13:51:24.204Z,100938.56
2023-03-21T13:52:26.000Z,100935.09
2023-03-21T13:53:28.001Z,100937.70
2023-03-21T13:54:29.872Z,100932.47
2023-03-21T13:55:31.689Z,100943.78
2023-03-21T13:56:33.488Z,100937.70
2023-03-21T13:57:35.293Z,100933.33
2023-03-21T13:58:37.141Z,100937.69
2023-03-21T13:59:38.940Z,100939.41
2023-03-21T14:00:40.750Z,100933.33
2023-03-21T14:01:42.701Z,100939.41
2023-03-21T14:02:44.646Z,100940.31
2023-03-21T14:03:46.459Z,100941.17
2023-03-21T14:05:04.003Z,100941.17
2023-03-21T14:05:51.998Z,100939.45
2023-03-21T14:06:53.890Z,100934.23
2023-03-21T14:07:59.365Z,100936.84
2023-03-21T14:08:59.357Z,100930.73
2023-03-21T14:10:01.200Z,100935.09
2023-03-21T14:11:03.015Z,100936.86
2023-03-21T14:12:07.860Z,100936.86
2023-03-21T14:13:08.422Z,100934.25
2023-03-21T14:14:10.448Z,100931.64
2023-03-21T14:15:16.859Z,100937.72
2023-03-21T14:16:15.971Z,100933.35
2023-03-21T14:17:17.684Z,100935.11
2023-03-21T14:18:28.134Z,100942.94
2023-03-21T14:19:23.186Z,100941.19
2023-03-21T14:20:25.021Z,100934.25
2023-03-21T14:21:26.828Z,100937.72
2023-03-21T14:22:28.616Z,100940.34
2023-03-21T14:23:30.440Z,100935.97
2023-03-21T14:24:32.255Z,100935.97
2023-03-21T14:25:40.937Z,100936.86
2023-03-21T14:26:37.737Z,100937.72
2023-03-21T14:27:39.504Z,100933.34
2023-03-21T14:28:41.297Z,100942.08
2023-03-21T14:29:43.093Z,100940.33
2023-03-21T14:30:44.942Z,100937.71
2023-03-21T14:31:46.713Z,100939.47
2023-03-21T14:32:48.500Z,100935.09
2023-03-21T14:33:50.314Z,100932.48
2023-03-21T14:34:52.324Z,100929.88
2023-03-21T14:35:54.221Z,100930.73
2023-03-21T14:36:58.608Z,100935.09
2023-03-21T14:37:59.682Z,100930.73
2023-03-21T14:39:01.505Z,100929.88
2023-03-21T14:40:03.322Z,100925.50
2023-03-21T14:41:05.334Z,100928.11
2023-03-21T14:42:07.120Z,100928.11
2023-03-21T14:43:08.913Z,100923.74
2023-03-21T14:44:10.736Z,100926.34
2023-03-21T14:45:12.562Z,100931.57
2023-03-21T14:46:14.451Z,100924.63
2023-03-21T14:47:16.237Z,100931.56
2023-03-21T14:48:18.045Z,100933.31
2023-03-21T14:49:19.836Z,100928.95
2023-03-21T14:50:21.748Z,100930.70
2023-03-21T14:51:23.609Z,100934.17
2023-03-21T14:52:25.407Z,100932.45
2023-03-21T14:53:27.220Z,100932.44
2023-03-21T14:54:29.035Z,100937.67
2023-03-21T14:55:30.870Z,100938.53
2023-03-21T14:56:32.673Z,100936.77
2023-03-21T14:57:34.478Z,100935.91
2023-03-21T14:58:36.274Z,100937.66
2023-03-21T14:59:38.086Z,100937.66
2023-03-21T15:00:40.160Z,100933.28
2023-03-21T15:01:42.039Z,100939.36